CYNL

METAR CYNL 040800Z AUTO 07009KT 9SM SCT076 BKN090 05/01 A2986 RMK AO1 SLP117
METAR
LOCATION
CYNL
DATE - TIME
040800Z
WIND
070 TRUE @ 9 KNOTS
VISIBILITY
9SM
RUNWAY VISUAL RANGE
NOT REPORTED
WEATHER
CLOUDINESS
SCT076 BKN090
TEMP / DEWPOINT
5 ºC / 1 ºC
ALTIMETER
29.86 in. Hg
RECENT WEATHER
NOT REPORTED
WIND SHEAR
NOT REPORTED
REMARKS
RMK AO1 SLP117
SEA LEVEL PRESSURE: hPa

CYNL

METAR CYNL 040700Z AUTO 07011KT 9SM OVC084 06/01 A2986 RMK AO1 SLP114
METAR
LOCATION
CYNL
DATE - TIME
040700Z
WIND
070 TRUE @ 11 KNOTS
VISIBILITY
9SM
RUNWAY VISUAL RANGE
NOT REPORTED
WEATHER
CLOUDINESS
OVC084
TEMP / DEWPOINT
6 ºC / 1 ºC
ALTIMETER
29.86 in. Hg
RECENT WEATHER
NOT REPORTED
WIND SHEAR
NOT REPORTED
REMARKS
RMK AO1 SLP114
SEA LEVEL PRESSURE: hPa

CYNL

METAR CYNL 040600Z AUTO 07011KT 9SM CLR 07/02 A2984 RMK AO1 SLP108
METAR
LOCATION
CYNL
DATE - TIME
040600Z
WIND
070 TRUE @ 11 KNOTS
VISIBILITY
9SM
RUNWAY VISUAL RANGE
NOT REPORTED
WEATHER
CLOUDINESS
CLR
TEMP / DEWPOINT
7 ºC / 2 ºC
ALTIMETER
29.84 in. Hg
RECENT WEATHER
NOT REPORTED
WIND SHEAR
NOT REPORTED
REMARKS
RMK AO1 SLP108
SEA LEVEL PRESSURE: hPa

Your time UTC time
 
 
Weather data provided by AXYS Technologies Inc., www.axystechnologies.com
 
Station History